Time;durP1;ratioP1;P1;durP2;ratioP2;P2;SDS_P1;SDS_P2;PMS_P1;PMS_P2;Temp;Humidity;BMP_temperature;BMP_pressure;BME280_temperature;BME280_humidity;BME280_pressure;Samples;Min_cycle;Max_cycle;Signal;HPM_P1;HPM_P2
2023/04/17 00:02:25;;;;;;;5.83;4.20;;;12.80;99.90;;;12.98;69.61;94243.06;5077938;28;20584;-59
2023/04/17 00:04:53;;;;;;;6.27;4.67;;;12.80;99.90;;;12.97;69.24;94237.97;5077911;28;20485;-57
2023/04/17 00:07:23;;;;;;;6.20;4.50;;;12.80;99.90;;;12.97;69.20;94240.59;5073822;28;21076;-60
2023/04/17 00:09:50;;;;;;;5.90;4.40;;;12.80;99.90;;;12.98;69.49;94250.16;5079888;28;20469;-60
2023/04/17 00:12:17;;;;;;;7.57;4.80;;;12.80;99.90;;;12.97;70.58;94240.59;5073095;28;20906;-60
2023/04/17 00:14:44;;;;;;;5.97;4.70;;;12.80;99.90;;;12.94;69.85;94241.75;5079894;28;20465;-59
2023/04/17 00:17:12;;;;;;;5.47;4.60;;;12.80;99.90;;;12.95;69.66;94237.28;5072401;28;20502;-58
2023/04/17 00:19:39;;;;;;;5.30;4.37;;;12.80;99.90;;;12.91;69.99;94232.34;5075698;28;20982;-57
2023/04/17 00:22:06;;;;;;;5.90;5.17;;;12.70;99.90;;;12.89;70.76;94230.91;5069854;28;20475;-60
2023/04/17 00:24:35;;;;;;;6.30;4.97;;;12.70;99.90;;;12.86;70.05;94234.69;5073919;28;21049;-62
2023/04/17 00:27:02;;;;;;;7.60;5.60;;;12.70;99.90;;;12.85;70.21;94232.22;5071513;28;20481;-61
2023/04/17 00:29:31;;;;;;;7.73;5.20;;;12.70;99.90;;;12.81;70.49;94234.38;5069804;28;20453;-60
2023/04/17 00:31:59;;;;;;;14.53;7.83;;;12.60;99.90;;;12.77;70.10;94235.69;5072469;28;20900;-58
2023/04/17 00:34:26;;;;;;;6.17;5.63;;;12.60;99.90;;;12.75;70.14;94232.41;5079233;28;20536;-57
2023/04/17 00:36:54;;;;;;;8.60;6.13;;;12.60;99.90;;;12.75;70.29;94232.41;5070196;28;21000;-60
2023/04/17 00:39:21;;;;;;;9.23;6.60;;;12.60;99.90;;;12.77;70.55;94230.41;5077144;28;20453;-60
2023/04/17 00:41:50;;;;;;;8.87;7.00;;;12.60;99.90;;;12.78;70.09;94224.16;5071622;28;20481;-56
2023/04/17 00:44:17;;;;;;;12.87;6.87;;;12.60;99.90;;;12.79;69.87;94230.25;5075199;28;20509;-56
2023/04/17 00:46:44;;;;;;;9.93;6.43;;;12.60;99.90;;;12.79;70.03;94228.44;5074143;28;20471;-57
2023/04/17 00:49:11;;;;;;;7.03;5.93;;;12.60;99.90;;;12.78;70.25;94228.59;5073964;28;21028;-60
2023/04/17 00:51:39;;;;;;;10.87;6.53;;;12.60;99.90;;;12.74;70.14;94217.56;5072521;28;20581;-60
2023/04/17 00:54:06;;;;;;;13.97;7.00;;;12.60;99.90;;;12.71;70.27;94228.47;5074441;28;20446;-61
2023/04/17 00:56:34;;;;;;;9.73;7.03;;;12.60;99.90;;;12.69;70.46;94218.06;5075914;28;20473;-61
2023/04/17 00:59:06;;;;;;;11.03;7.93;;;12.50;99.90;;;12.66;70.29;94225.50;5087614;28;20488;-57
2023/04/17 01:01:33;;;;;;;13.60;9.17;;;12.50;99.90;;;12.63;70.44;94224.03;5082494;28;21266;-60
2023/04/17 01:04:01;;;;;;;14.07;8.73;;;12.50;99.90;;;12.58;70.58;94220.22;5079218;28;20497;-59
2023/04/17 01:06:28;;;;;;;16.13;8.60;;;12.40;99.90;;;12.55;70.95;94216.94;5075454;28;20483;-57
2023/04/17 01:08:55;;;;;;;11.77;7.57;;;12.40;99.90;;;12.53;70.86;94216.31;5082884;28;20450;-58
2023/04/17 01:11:24;;;;;;;8.33;7.50;;;12.40;99.90;;;12.52;71.15;94214.66;5085635;28;20439;-57
2023/04/17 01:13:53;;;;;;;11.60;7.27;;;12.40;99.90;;;12.54;71.30;94214.47;5087211;28;20485;-59
2023/04/17 01:16:22;;;;;;;12.50;7.57;;;12.40;99.90;;;12.53;71.12;94213.66;5087785;28;20458;-62
2023/04/17 01:18:50;;;;;;;15.53;8.60;;;12.40;99.90;;;12.52;71.36;94217.28;5081772;28;20777;-57
2023/04/17 01:21:18;;;;;;;14.47;8.27;;;12.40;99.90;;;12.53;71.31;94213.66;5075661;28;21327;-57
2023/04/17 01:23:48;;;;;;;13.53;7.97;;;12.40;99.90;;;12.54;71.34;94212.66;5071087;28;20605;-62
2023/04/17 01:26:19;;;;;;;9.27;7.37;;;12.40;99.90;;;12.58;71.42;94214.94;5071526;28;20446;-59
2023/04/17 01:28:51;;;;;;;8.30;7.33;;;12.40;99.90;;;12.58;70.75;94215.78;5076542;28;20451;-61
2023/04/17 01:31:19;;;;;;;11.57;7.70;;;12.40;99.90;;;12.59;71.25;94220.06;5072141;28;20453;-57
2023/04/17 01:33:47;;;;;;;12.93;8.50;;;12.40;99.90;;;12.60;71.26;94219.06;5071861;28;20468;-60
2023/04/17 01:36:14;;;;;;;14.73;7.93;;;12.40;99.90;;;12.60;70.86;94220.91;5074380;28;20488;-61
2023/04/17 01:38:41;;;;;;;15.83;8.40;;;12.50;99.90;;;12.59;70.62;94220.06;5069674;28;20459;-60
2023/04/17 01:41:09;;;;;;;10.17;7.27;;;12.50;99.90;;;12.55;70.56;94214.31;5081653;28;20830;-61
2023/04/17 01:43:42;;;;;;;10.40;6.60;;;12.40;99.90;;;12.54;70.85;94209.19;5073223;28;20496;-61
2023/04/17 01:46:10;;;;;;;13.07;8.00;;;12.40;99.90;;;12.52;70.92;94212.00;5073454;28;20451;-60
2023/04/17 01:48:37;;;;;;;9.67;7.10;;;12.40;99.90;;;12.51;71.04;94204.25;5077670;28;20904;-64
2023/04/17 01:51:05;;;;;;;9.60;7.27;;;12.40;99.90;;;12.49;72.08;94204.44;5073782;28;20466;-57
2023/04/17 01:53:33;;;;;;;11.03;6.50;;;12.30;99.90;;;12.44;71.94;94204.13;5073435;28;20481;-57
2023/04/17 01:56:00;;;;;;;11.93;7.83;;;12.30;99.90;;;12.40;71.92;94202.78;5074846;28;20450;-58
2023/04/17 01:58:28;;;;;;;10.30;7.07;;;12.30;99.90;;;12.35;72.40;94215.66;5078711;28;20490;-58
2023/04/17 02:00:56;;;;;;;12.60;7.50;;;12.20;99.90;;;12.26;72.73;94196.38;5075706;28;20454;-61
2023/04/17 02:03:24;;;;;;;10.37;7.17;;;12.10;99.90;;;12.20;72.42;94203.13;5076866;28;21024;-61
2023/04/17 02:05:52;;;;;;;8.27;7.27;;;12.10;99.90;;;12.14;72.70;94197.72;5073373;28;20492;-62
2023/04/17 02:08:19;;;;;;;7.60;6.60;;;12.00;99.90;;;12.08;73.01;94196.56;5072150;28;20616;-57
2023/04/17 02:10:47;;;;;;;12.30;6.70;;;12.00;99.90;;;12.04;73.01;94197.91;5076833;28;20458;-60
2023/04/17 02:13:14;;;;;;;8.13;7.17;;;11.90;99.90;;;12.01;73.01;94199.03;5077432;28;20715;-60
2023/04/17 02:15:41;;;;;;;8.17;6.90;;;11.90;99.90;;;11.99;72.68;94195.75;5070322;28;20924;-59
2023/04/17 02:18:10;;;;;;;8.30;5.90;;;11.80;99.90;;;11.95;73.33;94191.78;5072718;28;20474;-59
2023/04/17 02:20:38;;;;;;;10.93;7.10;;;11.80;99.90;;;11.91;73.58;94189.63;5071820;28;20587;-56
2023/04/17 02:23:06;;;;;;;9.87;7.67;;;11.80;99.90;;;11.89;73.06;94192.41;5070461;28;20490;-58
2023/04/17 02:25:33;;;;;;;9.87;7.10;;;11.80;99.90;;;11.88;73.33;94192.59;5070605;28;20491;-58
2023/04/17 02:28:00;;;;;;;9.73;7.53;;;11.70;99.90;;;11.88;73.01;94192.59;5074133;28;20477;-57
2023/04/17 02:30:28;;;;;;;6.97;6.33;;;11.70;99.90;;;11.90;72.63;94193.22;5073219;28;20451;-60
2023/04/17 02:32:55;;;;;;;19.63;9.70;;;11.70;99.90;;;11.89;72.96;94186.34;5082055;28;20982;-61
2023/04/17 02:35:25;;;;;;;8.27;7.03;;;11.80;99.90;;;11.90;73.45;94188.81;5073638;28;20462;-60
2023/04/17 02:37:53;;;;;;;7.67;6.70;;;11.80;99.90;;;11.90;73.00;94185.31;5071708;28;20497;-61
2023/04/17 02:40:20;;;;;;;8.90;7.90;;;11.80;99.90;;;11.90;73.63;94190.59;5068987;28;20451;-61
2023/04/17 02:42:47;;;;;;;9.60;6.40;;;11.70;99.90;;;11.91;73.40;94192.25;5076664;28;20548;-58
2023/04/17 02:45:15;;;;;;;7.97;7.27;;;11.80;99.90;;;11.91;73.20;94193.06;5074284;28;20855;-60
2023/04/17 02:47:42;;;;;;;13.27;7.00;;;11.80;99.90;;;11.92;73.33;94193.91;5077915;28;20527;-62
2023/04/17 02:50:11;;;;;;;8.87;7.07;;;11.80;99.90;;;11.94;73.15;94198.03;5080647;28;20458;-59
2023/04/17 02:52:40;;;;;;;10.03;6.70;;;11.80;99.90;;;11.95;72.96;94193.63;5073137;28;20463;-62
2023/04/17 02:55:08;;;;;;;7.30;6.27;;;11.80;99.90;;;11.97;73.43;94199.53;5071464;28;20458;-60
2023/04/17 02:57:36;;;;;;;7.13;6.40;;;11.80;99.90;;;11.99;73.20;94200.19;5074254;28;20494;-58
2023/04/17 03:00:07;;;;;;;6.50;5.83;;;11.80;99.90;;;12.00;72.89;94201.84;5082064;28;20818;-57
2023/04/17 03:02:35;;;;;;;9.03;5.97;;;11.80;99.90;;;12.02;72.91;94195.44;5074487;28;20475;-61
2023/04/17 03:05:03;;;;;;;6.33;5.70;;;11.90;99.90;;;12.03;73.60;94198.88;5075114;28;20492;-57
2023/04/17 03:07:30;;;;;;;8.60;5.80;;;11.90;99.90;;;12.04;72.90;94203.16;5074012;28;20475;-60
2023/04/17 03:09:59;;;;;;;7.90;5.23;;;11.90;99.90;;;12.05;72.77;94212.69;5077337;28;20454;-57
2023/04/17 03:12:26;;;;;;;5.00;4.60;;;11.90;99.90;;;12.07;72.61;94210.75;5072507;28;20471;-61
2023/04/17 03:14:53;;;;;;;5.53;4.70;;;11.90;99.90;;;12.08;72.41;94208.91;5074042;28;20532;-57
2023/04/17 03:17:21;;;;;;;5.67;4.57;;;11.90;99.90;;;12.11;72.00;94214.69;5074199;28;20474;-58
2023/04/17 03:19:48;;;;;;;7.60;4.40;;;11.90;99.90;;;12.13;72.54;94204.81;5077124;28;20480;-58
2023/04/17 03:22:15;;;;;;;5.47;4.60;;;12.00;99.90;;;12.14;72.14;94216.97;5071254;28;20557;-61
2023/04/17 03:24:43;;;;;;;6.50;4.80;;;12.00;99.90;;;12.16;72.09;94212.38;5077520;28;20490;-61
2023/04/17 03:27:11;;;;;;;4.70;3.87;;;12.00;99.90;;;12.16;72.41;94212.38;5073724;28;20474;-60
2023/04/17 03:29:39;;;;;;;3.63;2.83;;;12.00;99.90;;;12.14;71.75;94216.16;5077515;28;20453;-56
2023/04/17 03:32:06;;;;;;;4.10;3.70;;;12.00;99.90;;;12.11;71.40;94209.41;5068030;28;20470;-60
2023/04/17 03:34:34;;;;;;;4.17;2.90;;;12.00;99.90;;;12.10;71.08;94212.22;5073861;28;20454;-58
2023/04/17 03:37:01;;;;;;;6.53;3.10;;;12.00;99.90;;;12.07;71.34;94213.38;5072479;28;20557;-57
2023/04/17 03:39:28;;;;;;;3.80;3.50;;;11.90;99.90;;;12.05;71.82;94209.25;5073936;28;20504;-58
2023/04/17 03:41:56;;;;;;;4.60;3.00;;;11.90;99.90;;;12.02;70.96;94213.88;5080380;28;20466;-61
2023/04/17 03:44:24;;;;;;;3.43;3.10;;;11.90;99.90;;;12.01;71.25;94217.50;5070997;28;20502;-60
2023/04/17 03:46:52;;;;;;;6.27;3.53;;;11.90;99.90;;;11.99;71.34;94210.72;5076465;28;20462;-56
2023/04/17 03:49:19;;;;;;;5.23;2.83;;;11.80;99.90;;;11.98;70.87;94204.63;5075470;28;21155;-61
2023/04/17 03:51:47;;;;;;;3.70;3.40;;;11.80;99.90;;;12.00;71.12;94204.47;5067470;28;20561;-59
2023/04/17 03:54:14;;;;;;;4.00;3.00;;;11.80;99.90;;;11.98;70.63;94209.09;5069691;28;20450;-56
2023/04/17 03:56:41;;;;;;;3.73;3.30;;;11.80;99.90;;;11.99;70.83;94216.00;5070567;28;20482;-57
2023/04/17 03:59:09;;;;;;;9.33;3.47;;;11.80;99.90;;;11.98;70.37;94215.19;5075422;28;20466;-60
2023/04/17 04:01:38;;;;;;;7.53;4.70;;;11.80;99.90;;;12.01;70.67;94214.03;5075745;28;20450;-60
2023/04/17 04:04:05;;;;;;;12.00;4.50;;;11.80;99.90;;;12.04;70.51;94218.97;5070493;28;20466;-56
2023/04/17 04:06:32;;;;;;;4.80;4.40;;;11.90;99.90;;;12.04;69.88;94213.72;5070649;28;20856;-62
2023/04/17 04:09:00;;;;;;;7.20;4.50;;;11.90;99.90;;;12.04;70.40;94213.72;5068170;28;20463;-58
2023/04/17 04:11:27;;;;;;;11.00;4.00;;;11.90;99.90;;;12.05;70.37;94210.06;5069864;28;20545;-60
2023/04/17 04:13:56;;;;;;;11.57;4.20;;;11.90;99.90;;;12.05;70.17;94210.06;5074831;28;21054;-62
2023/04/17 04:16:23;;;;;;;5.27;4.20;;;11.90;99.90;;;12.08;70.11;94209.72;5074282;28;20461;-57
2023/04/17 04:18:52;;;;;;;4.40;3.50;;;11.90;99.90;;;12.10;70.37;94207.78;5070342;28;20447;-57
2023/04/17 04:21:19;;;;;;;8.50;3.80;;;11.90;99.90;;;12.11;70.00;94213.88;5072906;28;20520;-57
2023/04/17 04:23:48;;;;;;;5.43;4.00;;;12.00;99.90;;;12.11;70.05;94222.59;5076621;28;20457;-60
2023/04/17 04:26:16;;;;;;;8.67;3.83;;;12.00;99.90;;;12.14;70.02;94224.88;5073757;28;20497;-60
2023/04/17 04:28:43;;;;;;;4.10;3.50;;;12.00;99.90;;;12.13;69.93;94225.91;5073246;28;21001;-60
2023/04/17 04:31:13;;;;;;;9.47;4.20;;;12.00;99.90;;;12.16;69.83;94222.09;5073632;28;21004;-61
2023/04/17 04:33:43;;;;;;;5.97;3.63;;;12.00;99.90;;;12.19;69.71;94227.03;5072461;28;21052;-61
2023/04/17 04:36:12;;;;;;;8.33;5.00;;;12.00;99.90;;;12.22;69.40;94231.16;5069177;28;20454;-60
2023/04/17 04:38:40;;;;;;;7.50;5.80;;;12.00;99.90;;;12.24;69.28;94230.03;5067580;28;20813;-61
2023/04/17 04:41:09;;;;;;;7.67;5.00;;;12.00;99.90;;;12.27;69.38;94234.13;5069573;28;20669;-60
2023/04/17 04:43:36;;;;;;;8.80;4.83;;;12.10;99.90;;;12.28;69.24;94231.31;5072805;28;20482;-58
2023/04/17 04:46:03;;;;;;;5.33;4.60;;;12.10;99.90;;;12.31;69.21;94227.53;5073544;28;20504;-61
2023/04/17 04:48:31;;;;;;;8.53;5.30;;;12.10;99.90;;;12.34;68.88;94228.00;5067867;28;20482;-60
2023/04/17 04:50:58;;;;;;;13.00;5.13;;;12.20;99.90;;;12.38;68.72;94231.16;5072846;28;20464;-60
2023/04/17 04:53:27;;;;;;;7.60;5.17;;;12.20;99.90;;;12.42;68.43;94237.72;5074435;28;20474;-61
2023/04/17 04:55:54;;;;;;;10.17;6.17;;;12.20;99.90;;;12.43;67.97;94235.94;5069866;28;20447;-62
2023/04/17 04:58:22;;;;;;;10.63;5.90;;;12.30;99.90;;;12.43;68.03;94233.28;5068719;28;20482;-61
2023/04/17 05:00:49;;;;;;;19.63;7.07;;;12.30;99.90;;;12.45;68.19;94242.66;5074651;28;20991;-60
2023/04/17 05:03:17;;;;;;;9.90;4.70;;;12.30;99.90;;;12.47;67.97;94238.06;5070745;28;20478;-61
2023/04/17 05:05:44;;;;;;;4.70;4.03;;;12.30;99.90;;;12.50;68.11;94239.53;5078605;28;20874;-60
2023/04/17 05:08:12;;;;;;;11.47;4.50;;;12.30;99.90;;;12.50;68.50;94239.53;5072458;28;20470;-60
2023/04/17 05:10:42;;;;;;;8.20;4.60;;;12.30;99.90;;;12.50;68.39;94240.38;5070016;28;20540;-58
2023/04/17 05:13:09;;;;;;;7.87;5.50;;;12.30;99.90;;;12.52;68.36;94233.09;5076951;28;20478;-58
2023/04/17 05:15:40;;;;;;;10.33;5.27;;;12.40;99.90;;;12.50;68.04;94232.47;5080687;28;21398;-58
2023/04/17 05:18:07;;;;;;;24.03;13.33;;;12.40;99.90;;;12.48;67.96;94229.16;5072121;28;20489;-62
2023/04/17 05:20:36;;;;;;;10.30;6.47;;;12.30;99.90;;;12.49;68.31;94232.63;5075499;28;20482;-58
2023/04/17 05:23:04;;;;;;;7.97;5.13;;;12.30;99.90;;;12.50;68.11;94239.53;5075799;28;20466;-58
2023/04/17 05:25:31;;;;;;;14.77;6.20;;;12.30;99.90;;;12.52;68.02;94243.66;5074347;28;20490;-58
2023/04/17 05:28:00;;;;;;;8.10;5.30;;;12.30;99.90;;;12.57;67.89;94239.72;5075264;28;20542;-58
2023/04/17 05:30:28;;;;;;;11.40;6.27;;;12.40;99.90;;;12.60;67.78;94242.00;5074676;28;20454;-61
2023/04/17 05:32:55;;;;;;;12.90;5.40;;;12.40;99.90;;;12.64;67.75;94233.59;5079365;28;20496;-60
2023/04/17 05:35:23;;;;;;;9.50;4.27;;;12.50;99.90;;;12.72;67.09;94240.66;5075990;28;21167;-58
2023/04/17 05:37:50;;;;;;;9.70;4.90;;;12.50;99.90;;;12.77;67.50;94232.25;5067652;28;20475;-60
2023/04/17 05:40:18;;;;;;;9.90;4.80;;;12.50;99.90;;;12.80;67.23;94238.00;5073371;28;20456;-57
2023/04/17 05:42:45;;;;;;;5.07;4.27;;;12.60;99.90;;;12.83;67.03;94242.94;5079629;28;20473;-57
2023/04/17 05:45:14;;;;;;;7.50;4.80;;;12.60;99.90;;;12.88;67.15;94237.16;5074365;28;20497;-58
2023/04/17 05:47:42;;;;;;;8.23;3.97;;;12.70;99.90;;;12.90;66.99;94236.00;5078628;28;20549;-59
2023/04/17 05:50:10;;;;;;;5.70;4.13;;;12.70;99.90;;;12.96;66.50;94238.94;5070729;28;20463;-57
2023/04/17 05:52:37;;;;;;;9.60;4.37;;;12.80;99.90;;;12.98;66.43;94242.22;5077700;28;20524;-61
2023/04/17 05:55:05;;;;;;;12.43;4.70;;;12.80;99.90;;;12.99;66.78;94243.88;5074307;28;20941;-58
2023/04/17 05:57:33;;;;;;;10.20;5.33;;;12.80;99.90;;;12.99;66.69;94243.88;5069454;28;20859;-58
2023/04/17 06:00:00;;;;;;;22.27;5.40;;;12.80;99.90;;;12.99;66.38;94244.69;5076256;28;20504;-57
2023/04/17 06:02:29;;;;;;;8.30;5.60;;;12.80;99.90;;;13.03;66.15;94247.84;5073694;28;20486;-61
2023/04/17 06:04:57;;;;;;;11.63;6.27;;;12.80;99.90;;;13.04;66.06;94247.66;5074833;28;20473;-60
2023/04/17 06:07:25;;;;;;;11.30;6.90;;;12.90;99.90;;;13.07;65.64;94252.63;5071990;28;21071;-61
2023/04/17 06:09:52;;;;;;;23.27;7.20;;;12.90;99.90;;;13.10;65.95;94248.78;5075572;28;20458;-58
2023/04/17 06:12:19;;;;;;;23.57;8.20;;;12.90;99.90;;;13.14;66.15;94258.03;5070064;28;20470;-58
2023/04/17 06:14:47;;;;;;;21.30;9.00;;;12.90;99.90;;;13.15;65.88;94258.84;5071504;28;20519;-62
2023/04/17 06:17:14;;;;;;;16.07;7.30;;;13.00;99.90;;;13.17;65.81;94260.31;5070661;28;20482;-61
2023/04/17 06:19:43;;;;;;;36.53;18.77;;;13.00;99.90;;;13.21;65.81;94264.25;5075993;28;20469;-60
2023/04/17 06:22:10;;;;;;;19.47;8.27;;;13.00;99.90;;;13.25;65.32;94264.75;5078232;28;20474;-60
2023/04/17 06:24:37;;;;;;;13.97;7.60;;;13.10;99.90;;;13.32;65.89;94264.88;5073547;28;20463;-58
2023/04/17 06:27:04;;;;;;;17.13;8.00;;;13.10;99.90;;;13.37;65.44;94267.84;5075969;28;20501;-58
2023/04/17 06:29:32;;;;;;;17.47;8.17;;;13.20;99.90;;;13.42;65.33;94278.75;5069726;28;20474;-61
2023/04/17 06:31:59;;;;;;;16.07;8.07;;;13.20;99.90;;;13.50;65.17;94278.69;5071663;28;20475;-60
2023/04/17 06:34:26;;;;;;;16.80;7.70;;;13.30;99.90;;;13.51;65.24;94272.44;5073370;28;20467;-58
2023/04/17 06:36:55;;;;;;;15.13;7.00;;;13.30;99.90;;;13.57;65.20;94277.03;5072160;28;20478;-62
2023/04/17 06:39:23;;;;;;;20.37;8.20;;;13.40;99.90;;;13.61;64.95;94278.31;5076632;28;20470;-60
2023/04/17 06:41:50;;;;;;;8.73;7.77;;;13.40;99.90;;;13.66;65.04;94274.34;5075112;28;20493;-62
2023/04/17 06:44:18;;;;;;;11.57;7.23;;;13.50;99.90;;;13.69;64.91;94276.63;5073477;28;20527;-58
2023/04/17 06:46:45;;;;;;;24.23;7.43;;;13.50;99.90;;;13.72;64.96;94271.81;5075049;28;20498;-59
2023/04/17 06:49:12;;;;;;;17.80;7.03;;;13.60;99.90;;;13.79;64.50;94274.59;5075949;28;20450;-56
2023/04/17 06:51:40;;;;;;;16.53;7.20;;;13.60;99.90;;;13.84;64.53;94274.88;5075797;28;20502;-59
2023/04/17 06:54:09;;;;;;;16.23;7.47;;;13.70;99.90;;;13.91;64.54;94267.06;5074362;28;20454;-59
2023/04/17 06:56:37;;;;;;;10.30;7.00;;;13.70;99.90;;;14.03;64.28;94262.22;5072979;28;20482;-58
2023/04/17 06:59:04;;;;;;;17.67;6.77;;;13.80;99.90;;;14.18;63.86;94272.84;5077835;28;20458;-59
2023/04/17 07:01:31;;;;;;;15.00;6.73;;;13.90;99.90;;;14.31;63.45;94263.34;5073599;28;20510;-60
2023/04/17 07:03:58;;;;;;;12.87;6.23;;;14.10;99.90;;;14.42;62.97;94277.13;5071080;28;21033;-57
2023/04/17 07:06:26;;;;;;;10.13;6.43;;;14.20;99.90;;;14.49;62.54;94275.41;5072461;28;21061;-62
2023/04/17 07:08:53;;;;;;;15.20;6.67;;;14.30;99.90;;;14.46;62.44;94271.28;5076209;28;20463;-59
2023/04/17 07:11:22;;;;;;;18.57;6.80;;;14.30;99.90;;;14.43;62.55;94269.00;5075490;28;20922;-61
2023/04/17 07:13:50;;;;;;;14.80;6.57;;;14.30;99.90;;;14.45;62.10;94272.31;5071582;28;20463;-62
2023/04/17 07:16:17;;;;;;;11.63;6.77;;;14.30;99.90;;;14.45;62.18;94271.47;5070929;28;20465;-58
2023/04/17 07:18:44;;;;;;;10.43;6.20;;;14.30;99.90;;;14.50;62.35;94277.03;5079459;28;20900;-61
2023/04/17 07:21:12;;;;;;;13.00;6.07;;;14.30;99.90;;;14.58;61.94;94277.00;5071171;28;20974;-59
2023/04/17 07:23:39;;;;;;;19.30;7.40;;;14.40;99.90;;;14.65;61.83;94277.94;5074100;28;20539;-62
2023/04/17 07:26:06;;;;;;;16.83;6.67;;;14.50;99.90;;;14.73;61.65;94281.50;5075696;28;20548;-59
2023/04/17 07:28:37;;;;;;;15.20;7.50;;;14.50;99.90;;;14.77;61.46;94286.28;5075675;28;20463;-62
2023/04/17 07:31:07;;;;;;;24.63;5.77;;;14.60;99.90;;;14.75;61.03;94288.28;5070781;28;20461;-61
2023/04/17 07:33:35;;;;;;;11.53;5.90;;;14.60;99.80;;;14.66;60.96;94292.81;5073467;28;20447;-61
2023/04/17 07:36:03;;;;;;;12.23;6.83;;;14.50;99.50;;;14.58;60.79;94287.56;5073110;28;20443;-62
2023/04/17 07:38:31;;;;;;;70.37;8.90;;;14.50;99.30;;;14.51;60.84;94287.44;5075825;28;20482;-61
2023/04/17 07:40:59;;;;;;;16.53;6.73;;;14.40;99.60;;;14.47;60.97;94288.00;5070982;28;20447;-61
2023/04/17 07:43:27;;;;;;;10.47;7.10;;;14.40;99.90;;;14.46;60.97;94289.00;5074201;28;20478;-60
2023/04/17 07:45:55;;;;;;;6.20;5.33;;;14.30;99.70;;;14.45;61.26;94282.91;5074092;28;20483;-58
2023/04/17 07:48:23;;;;;;;16.30;6.80;;;14.30;99.90;;;14.47;61.52;94282.72;5078697;28;20478;-57
2023/04/17 07:50:50;;;;;;;12.20;6.33;;;14.30;99.90;;;14.50;61.45;94285.81;5075126;28;20454;-58
2023/04/17 07:53:18;;;;;;;10.60;5.37;;;14.30;99.90;;;14.57;61.50;94280.63;5075619;28;20561;-57
2023/04/17 07:55:46;;;;;;;10.30;5.50;;;14.40;99.90;;;14.64;61.29;94286.06;5069694;28;20491;-56
2023/04/17 07:58:15;;;;;;;9.63;6.07;;;14.40;99.90;;;14.70;61.07;94291.47;5075965;28;20485;-56
2023/04/17 08:00:42;;;;;;;10.60;7.33;;;14.50;99.90;;;14.75;61.53;94287.44;5074757;28;21001;-58
2023/04/17 08:03:12;;;;;;;16.03;7.30;;;14.60;99.90;;;14.81;61.56;94289.38;5073803;28;21012;-64
2023/04/17 08:05:40;;;;;;;8.83;6.73;;;14.60;99.90;;;14.84;61.10;94283.72;5074882;28;20446;-72
2023/04/17 08:08:07;;;;;;;10.83;6.03;;;14.60;99.80;;;14.86;61.08;94285.19;5070979;28;20481;-57
2023/04/17 08:10:34;;;;;;;15.00;6.10;;;14.70;99.80;;;14.90;60.86;94290.94;5072744;28;20462;-58
2023/04/17 08:13:02;;;;;;;9.97;5.70;;;14.70;99.70;;;14.93;60.38;94293.22;5075756;28;20864;-57
2023/04/17 08:15:29;;;;;;;8.03;6.13;;;14.70;99.40;;;14.91;60.47;94289.94;5072687;28;20463;-59
2023/04/17 08:17:57;;;;;;;12.43;5.50;;;14.70;99.20;;;14.88;60.25;94295.59;5071797;28;20500;-59
2023/04/17 08:20:26;;;;;;;9.00;5.90;;;14.70;99.20;;;14.86;60.38;94294.97;5072999;28;20474;-59
2023/04/17 08:22:53;;;;;;;11.00;6.10;;;14.70;99.30;;;14.85;60.69;94293.31;5071373;28;20479;-59
2023/04/17 08:25:20;;;;;;;36.50;7.57;;;14.70;99.40;;;14.83;60.40;94282.91;5069782;28;20887;-58
2023/04/17 08:27:47;;;;;;;11.53;7.07;;;14.70;99.30;;;14.83;60.47;94285.56;5070445;28;20539;-58
2023/04/17 08:30:16;;;;;;;13.47;6.90;;;14.60;99.20;;;14.85;60.76;94288.03;5076309;28;20454;-58
2023/04/17 08:32:44;;;;;;;25.00;6.80;;;14.70;99.40;;;14.89;61.00;94297.25;5074517;28;20591;-59
2023/04/17 08:35:13;;;;;;;14.27;6.70;;;14.70;99.40;;;14.93;60.68;94285.28;5073350;28;20459;-60
2023/04/17 08:37:43;;;;;;;8.17;5.80;;;14.80;99.50;;;14.95;60.38;94296.53;5075033;28;20466;-59
2023/04/17 08:40:12;;;;;;;8.73;6.10;;;14.80;99.40;;;14.92;60.39;94296.91;5069102;28;21379;-58
2023/04/17 08:42:40;;;;;;;13.83;5.77;;;14.70;99.20;;;14.84;60.21;94296.94;5071555;28;20474;-59
2023/04/17 08:45:09;;;;;;;11.37;5.87;;;14.70;99.10;;;14.76;60.85;94299.69;5077039;28;20501;-59
2023/04/17 08:47:37;;;;;;;13.03;6.57;;;14.70;99.40;;;14.68;61.53;94298.75;5076966;28;20835;-60
2023/04/17 08:50:08;;;;;;;8.90;5.97;;;14.60;99.90;;;14.64;62.07;94297.47;5075082;28;21372;-58
2023/04/17 08:52:42;;;;;;;17.97;6.73;;;14.60;99.90;;;14.58;62.14;94298.16;5068618;28;20490;-60
2023/04/17 08:55:10;;;;;;;8.47;6.27;;;14.50;99.90;;;14.58;62.61;94298.16;5072307;28;20550;-59
2023/04/17 08:57:59;;;;;;;27.67;8.70;;;14.50;99.90;;;14.61;63.77;94308.44;5078028;28;20501;-59
2023/04/17 09:00:27;;;;;;;8.57;6.40;;;14.40;99.90;;;14.67;63.83;94305.06;5075014;28;20448;-59
2023/04/17 09:02:55;;;;;;;17.33;8.10;;;14.50;99.90;;;14.78;63.92;94300.31;5075309;28;20470;-58
2023/04/17 09:05:23;;;;;;;19.60;6.50;;;14.60;99.90;;;14.88;63.08;94308.84;5078015;28;20454;-59
2023/04/17 09:08:10;;;;;;;32.03;8.70;;;14.60;99.90;;;15.00;63.46;94309.22;5070387;28;20516;-60
2023/04/17 09:10:38;;;;;;;21.93;8.40;;;14.70;99.90;;;15.08;63.33;94292.44;5078174;28;20459;-61
2023/04/17 09:13:05;;;;;;;67.63;12.27;;;14.80;99.90;;;15.15;62.93;94301.28;5075368;28;20915;-59
2023/04/17 09:15:33;;;;;;;10.63;6.10;;;14.90;99.90;;;15.22;62.59;94294.25;5077027;28;20565;-60
2023/04/17 09:18:00;;;;;;;34.67;8.57;;;15.00;99.90;;;15.27;62.32;94291.88;5072408;28;20473;-60
2023/04/17 09:20:27;;;;;;;28.93;7.30;;;15.00;99.90;;;15.30;62.25;94288.84;5074724;28;21338;-58
2023/04/17 09:23:04;;;;;;;175.80;22.90;;;15.10;99.90;;;15.34;63.26;94291.97;5079524;28;20530;-59
2023/04/17 09:25:31;;;;;;;36.60;8.30;;;15.10;99.90;;;15.41;62.93;94283.13;5075724;28;21033;-60
2023/04/17 09:28:11;;;;;;;20.00;6.40;;;15.20;99.90;;;15.49;62.58;94287.50;5076256;28;21094;-61
2023/04/17 09:30:39;;;;;;;10.90;5.70;;;15.30;99.90;;;15.51;62.02;94288.13;5071736;28;20538;-59
2023/04/17 09:33:07;;;;;;;18.77;10.00;;;15.30;99.90;;;15.54;61.88;94281.66;5075551;28;20463;-62
2023/04/17 09:35:36;;;;;;;22.93;6.77;;;15.30;99.90;;;15.54;61.91;94281.66;5077385;28;20486;-59
2023/04/17 09:38:05;;;;;;;9.27;6.03;;;15.30;99.90;;;15.53;61.71;94291.41;5077036;28;20484;-60
2023/04/17 09:40:38;;;;;;;19.07;7.07;;;15.40;99.90;;;15.51;61.98;94282.00;5079038;28;20580;-58
2023/04/17 09:43:06;;;;;;;14.90;5.80;;;15.30;99.90;;;15.50;61.86;94283.81;5076909;28;20477;-60
2023/04/17 09:45:36;;;;;;;10.27;6.40;;;15.30;99.90;;;15.49;61.52;94284.00;5075370;28;20458;-60
2023/04/17 09:48:05;;;;;;;13.27;4.93;;;15.30;99.90;;;15.43;61.53;94290.88;5075621;28;21176;-59
2023/04/17 09:50:33;;;;;;;9.33;5.73;;;15.30;99.90;;;15.39;61.48;94286.94;5073191;28;20447;-58
2023/04/17 09:53:01;;;;;;;37.87;22.20;;;15.20;99.90;;;15.31;61.35;94301.13;5075674;28;20520;-60
2023/04/17 09:55:30;;;;;;;21.30;9.10;;;15.10;99.90;;;15.23;61.83;94295.91;5076711;28;21112;-59
2023/04/17 09:57:58;;;;;;;11.97;6.93;;;15.10;99.90;;;15.19;62.24;94295.44;5070356;28;20474;-60
2023/04/17 10:00:26;;;;;;;9.47;5.37;;;15.00;99.90;;;15.19;61.93;94289.31;5074311;28;20487;-59
2023/04/17 10:02:54;;;;;;;11.53;5.70;;;15.00;99.90;;;15.15;61.96;94293.34;5073173;28;20926;-58
2023/04/17 10:05:22;;;;;;;17.47;6.00;;;15.00;99.90;;;15.12;62.23;94285.75;5071677;28;20458;-59
2023/04/17 10:07:50;;;;;;;11.77;5.87;;;14.90;99.90;;;15.09;62.42;94283.47;5075005;28;20506;-60
2023/04/17 10:10:23;;;;;;;15.53;8.70;;;14.90;99.90;;;15.10;62.87;94282.47;5075910;28;20462;-59
2023/04/17 10:12:53;;;;;;;12.47;7.00;;;14.90;99.90;;;15.08;62.55;94282.66;5080174;28;20481;-60
2023/04/17 10:15:21;;;;;;;8.90;4.93;;;14.90;99.90;;;15.06;62.21;94284.66;5073711;28;20446;-59
2023/04/17 10:17:48;;;;;;;15.00;6.47;;;14.90;99.90;;;15.06;62.49;94279.38;5069425;28;20479;-59
2023/04/17 10:20:43;;;;;;;13.73;7.23;;;14.90;99.90;;;15.08;63.11;94281.84;5073027;28;20485;-58